Time,TemperatureF,DewpointF,PressureIn,WindDirection,WindDirectionDegrees,WindSpeedMPH,WindSpeedGustMPH,Humidity,HourlyPrecipIn,Conditions,Clouds,dailyrainin,SoftwareType,DateUTC
2013-08-18 00:07:00,64.1,62.0,30.15,East,80,1.0,2.0,93,0.04,,,0.00,weatherlink.com 1.10,2013-08-18 04:07:00,
2013-08-18 00:22:00,64.0,62.0,30.15,East,80,1.0,2.0,94,0.03,,,0.01,weatherlink.com 1.10,2013-08-18 04:22:00,
2013-08-18 00:37:00,64.2,62.0,30.15,East,80,1.0,-999.0,93,41.66,,,0.01,weatherlink.com 1.10,2013-08-18 04:37:00,
2013-08-18 00:52:00,64.1,62.0,30.14,ENE,64,1.0,3.0,94,0.01,,,0.01,weatherlink.com 1.10,2013-08-18 04:52:00,
2013-08-18 01:07:00,64.1,62.0,30.14,ENE,64,1.0,3.0,94,0.01,,,0.01,weatherlink.com 1.10,2013-08-18 05:07:00,
2013-08-18 01:22:00,64.1,62.0,30.14,North,355,2.0,3.0,94,0.00,,,0.01,weatherlink.com 1.10,2013-08-18 05:22:00,
2013-08-18 01:37:00,64.0,62.0,30.13,NNE,20,2.0,4.0,94,0.00,,,0.01,weatherlink.com 1.10,2013-08-18 05:37:00,
2013-08-18 01:52:00,64.1,62.0,30.13,NNE,19,0.0,2.0,94,0.00,,,0.01,weatherlink.com 1.10,2013-08-18 05:52:00,
2013-08-18 02:07:00,64.0,62.0,30.14,NNE,19,0.0,3.0,94,0.00,,,0.01,weatherlink.com 1.10,2013-08-18 06:07:00,
2013-08-18 02:22:00,64.1,62.0,30.12,ENE,67,1.0,3.0,94,0.01,,,0.02,weatherlink.com 1.10,2013-08-18 06:22:00,
2013-08-18 02:37:00,64.0,62.0,30.13,NE,54,1.0,2.0,94,0.01,,,0.02,weatherlink.com 1.10,2013-08-18 06:37:00,
2013-08-18 02:52:00,64.0,62.0,30.13,NE,54,0.0,2.0,94,0.01,,,0.02,weatherlink.com 1.10,2013-08-18 06:52:00,
2013-08-18 03:07:00,64.1,62.0,30.14,NE,54,0.0,1.0,94,0.01,,,0.02,weatherlink.com 1.10,2013-08-18 07:07:00,
2013-08-18 03:22:00,64.0,62.0,30.14,NE,54,0.0,1.0,94,0.00,,,0.02,weatherlink.com 1.10,2013-08-18 07:22:00,
2013-08-18 03:37:00,64.0,62.0,30.13,NE,54,1.0,1.0,94,0.00,,,0.02,weatherlink.com 1.10,2013-08-18 07:37:00,
2013-08-18 03:52:00,64.0,62.0,30.13,NE,54,2.0,3.0,94,0.00,,,0.02,weatherlink.com 1.10,2013-08-18 07:52:00,
2013-08-18 04:07:00,64.1,62.0,30.13,NE,54,1.0,2.0,94,0.00,,,0.02,weatherlink.com 1.10,2013-08-18 08:07:00,
2013-08-18 04:22:00,64.0,62.0,30.13,NE,54,0.0,2.0,94,0.00,,,0.02,weatherlink.com 1.10,2013-08-18 08:22:00,
2013-08-18 04:37:00,64.1,62.0,30.12,NE,54,1.0,2.0,94,0.00,,,0.02,weatherlink.com 1.10,2013-08-18 08:37:00,
2013-08-18 04:52:00,64.1,62.0,30.13,ENE,61,0.0,3.0,94,0.00,,,0.02,weatherlink.com 1.10,2013-08-18 08:52:00,
2013-08-18 05:07:00,64.1,62.0,30.14,ENE,61,0.0,1.0,94,0.00,,,0.02,weatherlink.com 1.10,2013-08-18 09:07:00,
2013-08-18 05:22:00,64.2,63.0,30.14,ENE,61,0.0,1.0,94,0.00,,,0.02,weatherlink.com 1.10,2013-08-18 09:22:00,
2013-08-18 05:37:00,64.3,63.0,30.14,ENE,61,0.0,1.0,94,0.00,,,0.02,weatherlink.com 1.10,2013-08-18 09:37:00,
2013-08-18 05:52:00,64.3,63.0,30.14,ENE,61,0.0,1.0,94,0.00,,,0.02,weatherlink.com 1.10,2013-08-18 09:52:00,
2013-08-18 06:07:00,64.3,63.0,30.15,ENE,61,0.0,0.0,94,0.01,,,0.03,weatherlink.com 1.10,2013-08-18 10:07:00,
2013-08-18 06:23:00,64.2,63.0,30.15,ENE,61,1.0,1.0,94,0.01,,,0.03,weatherlink.com 1.10,2013-08-18 10:23:00,
2013-08-18 06:38:00,64.3,63.0,30.16,ENE,61,1.0,2.0,94,0.01,,,0.03,weatherlink.com 1.10,2013-08-18 10:38:00,
2013-08-18 06:53:00,64.4,63.0,30.16,ENE,61,0.0,1.0,94,0.01,,,0.03,weatherlink.com 1.10,2013-08-18 10:53:00,
2013-08-18 07:08:00,64.4,63.0,30.16,ENE,61,0.0,1.0,94,0.00,,,0.03,weatherlink.com 1.10,2013-08-18 11:08:00,
2013-08-18 07:23:00,64.3,63.0,30.16,ENE,61,0.0,2.0,94,0.00,,,0.03,weatherlink.com 1.10,2013-08-18 11:23:00,
2013-08-18 07:38:00,64.5,63.0,30.16,NE,54,1.0,3.0,94,0.00,,,0.03,weatherlink.com 1.10,2013-08-18 11:38:00,
2013-08-18 07:53:00,64.6,63.0,30.16,NNE,17,2.0,4.0,94,0.00,,,0.03,weatherlink.com 1.10,2013-08-18 11:53:00,
2013-08-18 08:08:00,64.8,63.0,30.17,NE,38,0.0,3.0,95,0.01,,,0.04,weatherlink.com 1.10,2013-08-18 12:08:00,
2013-08-18 08:23:00,65.2,64.0,30.18,NE,38,0.0,2.0,94,0.01,,,0.04,weatherlink.com 1.10,2013-08-18 12:23:00,
2013-08-18 08:38:00,65.2,64.0,30.18,NE,38,0.0,1.0,94,0.01,,,0.04,weatherlink.com 1.10,2013-08-18 12:38:00,
2013-08-18 08:53:00,65.5,64.0,30.18,NE,38,0.0,2.0,95,0.01,,,0.04,weatherlink.com 1.10,2013-08-18 12:53:00,
2013-08-18 09:08:00,66.1,65.0,30.18,NNE,32,0.0,3.0,96,0.00,,,0.04,weatherlink.com 1.10,2013-08-18 13:08:00,
2013-08-18 09:23:00,66.7,66.0,30.18,NE,39,3.0,3.0,96,0.00,,,0.04,weatherlink.com 1.10,2013-08-18 13:23:00,
2013-08-18 09:38:00,67.1,66.0,30.19,NE,38,0.0,2.0,96,0.00,,,0.04,weatherlink.com 1.10,2013-08-18 13:38:00,
2013-08-18 09:53:00,67.3,66.0,30.19,NE,38,0.0,1.0,95,0.00,,,0.04,weatherlink.com 1.10,2013-08-18 13:53:00,
2013-08-18 10:08:00,68.2,67.0,30.20,NE,38,2.0,3.0,95,0.00,,,0.04,weatherlink.com 1.10,2013-08-18 14:08:00,
2013-08-18 10:23:00,68.6,67.0,30.20,NNE,19,1.0,3.0,93,0.00,,,0.04,weatherlink.com 1.10,2013-08-18 14:23:00,
2013-08-18 10:55:00,69.5,68.0,30.20,WNW,301,2.0,3.0,94,0.00,,,0.04,weatherlink.com 1.10,2013-08-18 14:55:00,
2013-08-18 11:08:00,71.3,69.0,30.20,North,9,2.0,4.0,91,0.00,,,0.04,weatherlink.com 1.10,2013-08-18 15:08:00,
2013-08-18 11:23:00,72.6,69.0,30.20,East,98,3.0,6.0,87,0.00,,,0.04,weatherlink.com 1.10,2013-08-18 15:23:00,
2013-08-18 11:38:00,72.9,69.0,30.19,NE,55,2.0,6.0,87,0.00,,,0.04,weatherlink.com 1.10,2013-08-18 15:38:00,
2013-08-18 11:53:00,72.4,68.0,30.19,NNW,328,1.0,5.0,86,0.00,,,0.04,weatherlink.com 1.10,2013-08-18 15:53:00,
2013-08-18 12:08:00,72.3,69.0,30.20,NW,319,2.0,4.0,89,0.00,,,0.04,weatherlink.com 1.10,2013-08-18 16:08:00,
2013-08-18 12:23:00,72.9,69.0,30.19,WSW,244,0.0,4.0,88,0.00,,,0.04,weatherlink.com 1.10,2013-08-18 16:23:00,
2013-08-18 12:38:00,74.4,69.0,30.18,NW,321,3.0,5.0,83,0.00,,,0.04,weatherlink.com 1.10,2013-08-18 16:38:00,
2013-08-18 12:53:00,74.3,69.0,30.18,NW,318,3.0,6.0,84,0.00,,,0.04,weatherlink.com 1.10,2013-08-18 16:53:00,
2013-08-18 13:08:00,74.5,70.0,30.18,NW,304,4.0,5.0,86,0.00,,,0.04,weatherlink.com 1.10,2013-08-18 17:08:00,
2013-08-18 13:23:00,75.6,71.0,30.18,West,277,2.0,7.0,84,0.00,,,0.04,weatherlink.com 1.10,2013-08-18 17:23:00,
2013-08-18 13:38:00,75.0,70.0,30.17,NW,311,2.0,5.0,83,0.00,,,0.04,weatherlink.com 1.10,2013-08-18 17:38:00,
2013-08-18 13:53:00,75.4,70.0,30.17,NNE,17,1.0,3.0,83,0.00,,,0.04,weatherlink.com 1.10,2013-08-18 17:53:00,
2013-08-18 14:13:00,75.0,70.0,30.16,NW,309,2.0,4.0,85,0.00,,,0.04,weatherlink.com 1.10,2013-08-18 18:13:00,
2013-08-18 14:23:00,75.1,71.0,30.16,NW,309,1.0,3.0,87,0.00,,,0.04,weatherlink.com 1.10,2013-08-18 18:23:00,
2013-08-18 14:38:00,75.9,70.0,30.15,NNW,332,3.0,5.0,83,0.00,,,0.04,weatherlink.com 1.10,2013-08-18 18:38:00,
2013-08-18 14:53:00,76.1,70.0,30.14,NNW,346,3.0,3.0,82,0.00,,,0.04,weatherlink.com 1.10,2013-08-18 18:53:00,
2013-08-18 15:08:00,76.1,70.0,30.14,SW,218,1.0,4.0,80,0.00,,,0.04,weatherlink.com 1.10,2013-08-18 19:08:00,
2013-08-18 15:23:00,77.7,71.0,30.13,West,262,3.0,3.0,80,0.00,,,0.04,weatherlink.com 1.10,2013-08-18 19:23:00,
2013-08-18 15:38:00,77.8,71.0,30.13,ENE,71,3.0,5.0,79,0.00,,,0.04,weatherlink.com 1.10,2013-08-18 19:38:00,
2013-08-18 15:53:00,78.6,71.0,30.13,NNE,15,4.0,4.0,78,0.00,,,0.04,weatherlink.com 1.10,2013-08-18 19:53:00,
2013-08-18 16:08:00,79.3,73.0,30.12,NE,49,1.0,6.0,80,0.00,,,0.04,weatherlink.com 1.10,2013-08-18 20:08:00,
2013-08-18 16:23:00,78.0,73.0,30.12,WNW,294,3.0,4.0,84,0.00,,,0.04,weatherlink.com 1.10,2013-08-18 20:23:00,
2013-08-18 16:38:00,77.7,71.0,30.12,SSW,193,0.0,2.0,80,0.00,,,0.04,weatherlink.com 1.10,2013-08-18 20:38:00,
2013-08-18 16:53:00,77.3,72.0,30.12,SW,217,0.0,3.0,83,0.00,,,0.04,weatherlink.com 1.10,2013-08-18 20:53:00,
2013-08-18 17:08:00,77.4,70.0,30.12,West,272,1.0,4.0,79,0.00,,,0.04,weatherlink.com 1.10,2013-08-18 21:08:00,
2013-08-18 17:23:00,77.0,72.0,30.12,WNW,298,0.0,2.0,84,0.00,,,0.04,weatherlink.com 1.10,2013-08-18 21:23:00,
2013-08-18 17:38:00,76.6,72.0,30.12,WNW,298,1.0,1.0,86,0.00,,,0.04,weatherlink.com 1.10,2013-08-18 21:38:00,
2013-08-18 17:53:00,75.9,72.0,30.12,WNW,298,0.0,1.0,88,0.00,,,0.04,weatherlink.com 1.10,2013-08-18 21:53:00,
2013-08-18 18:08:00,75.8,72.0,30.11,WNW,298,1.0,1.0,89,0.00,,,0.04,weatherlink.com 1.10,2013-08-18 22:08:00,
2013-08-18 18:23:00,76.8,73.0,30.12,West,276,1.0,1.0,89,0.00,,,0.04,weatherlink.com 1.10,2013-08-18 22:23:00,
2013-08-18 18:38:00,76.4,73.0,30.11,WNW,288,0.0,1.0,88,0.00,,,0.04,weatherlink.com 1.10,2013-08-18 22:38:00,
2013-08-18 18:53:00,75.3,72.0,30.11,WNW,288,0.0,1.0,88,0.00,,,0.04,weatherlink.com 1.10,2013-08-18 22:53:00,
2013-08-18 19:08:00,74.7,72.0,30.11,WNW,288,0.0,1.0,90,0.00,,,0.04,weatherlink.com 1.10,2013-08-18 23:08:00,
2013-08-18 19:23:00,74.3,72.0,30.12,WNW,288,0.0,1.0,92,0.00,,,0.04,weatherlink.com 1.10,2013-08-18 23:23:00,
2013-08-18 19:38:00,74.3,72.0,30.13,WNW,288,1.0,2.0,92,0.00,,,0.04,weatherlink.com 1.10,2013-08-18 23:38:00,
2013-08-18 19:53:00,74.4,72.0,30.13,WNW,288,0.0,2.0,91,0.00,,,0.04,weatherlink.com 1.10,2013-08-18 23:53:00,
2013-08-18 20:08:00,73.6,72.0,30.14,WNW,288,0.0,1.0,93,0.00,,,0.04,weatherlink.com 1.10,2013-08-19 00:08:00,
2013-08-18 20:23:00,73.0,71.0,30.13,WNW,288,0.0,1.0,94,0.00,,,0.04,weatherlink.com 1.10,2013-08-19 00:23:00,
2013-08-18 20:38:00,72.5,71.0,30.14,WNW,288,0.0,1.0,95,0.00,,,0.04,weatherlink.com 1.10,2013-08-19 00:38:00,
2013-08-18 20:53:00,72.1,71.0,30.14,WNW,288,0.0,0.0,95,0.00,,,0.04,weatherlink.com 1.10,2013-08-19 00:53:00,
2013-08-18 21:08:00,72.1,71.0,30.14,WNW,288,0.0,1.0,95,0.00,,,0.04,weatherlink.com 1.10,2013-08-19 01:08:00,
2013-08-18 21:23:00,71.6,70.0,30.13,WNW,288,0.0,2.0,95,0.00,,,0.04,weatherlink.com 1.10,2013-08-19 01:23:00,
2013-08-18 21:38:00,71.4,70.0,30.14,WNW,288,0.0,0.0,94,0.00,,,0.04,weatherlink.com 1.10,2013-08-19 01:38:00,
2013-08-18 21:53:00,71.2,69.0,30.15,WNW,288,0.0,0.0,94,0.00,,,0.04,weatherlink.com 1.10,2013-08-19 01:53:00,
2013-08-18 22:08:00,71.1,69.0,30.16,WNW,288,0.0,0.0,94,0.00,,,0.04,weatherlink.com 1.10,2013-08-19 02:08:00,
2013-08-18 22:23:00,71.0,69.0,30.16,WNW,288,0.0,0.0,94,0.01,,,0.05,weatherlink.com 1.10,2013-08-19 02:23:00,
2013-08-18 22:38:00,70.9,69.0,30.15,WNW,288,0.0,1.0,94,0.01,,,0.05,weatherlink.com 1.10,2013-08-19 02:38:00,
2013-08-18 22:53:00,70.7,69.0,30.16,WNW,288,0.0,0.0,94,0.01,,,0.05,weatherlink.com 1.10,2013-08-19 02:53:00,
2013-08-18 23:08:00,70.6,69.0,30.16,WNW,288,0.0,0.0,93,0.00,,,0.05,weatherlink.com 1.10,2013-08-19 03:08:00,
2013-08-18 23:23:00,70.7,69.0,30.16,WNW,288,0.0,0.0,93,0.01,,,0.06,weatherlink.com 1.10,2013-08-19 03:23:00,
2013-08-18 23:38:00,70.4,68.0,30.15,WNW,288,0.0,1.0,93,0.02,,,0.07,weatherlink.com 1.10,2013-08-19 03:38:00,
2013-08-18 23:53:00,70.7,69.0,30.15,WNW,288,0.0,0.0,93,0.02,,,0.07,weatherlink.com 1.10,2013-08-19 03:53:00,